Amsterdam, Montana
Current Conditions -  °F | °C
As of 8:56 PM on Monday 20 Oct 2014 (Local Time) from KBZN Reporting Station
Clear Clear  
Wind Chill: 10°   Ceiling: Unl
Heat Index: 10°   Visibility: 10mi
Dew Point:   Wind: 12mph
Humidity: 59%   Direction: 140°SE
Pressure: 29.84"   Gusts: NA
Location:  45.7517°N, 111.347°W
Report Text: KBZN 210256Z 14010KT 10SM CLR 10/02 A2984 RMK AO2 SLP110 T01000022 50001
Loading
Personal Weather Stations






























Interactive Weather Map
Tropical Storm Tracking
New forecast layout! Learn more

10-Day Weather Forecast

Advertisements
Track Severe Weather on mobile